sensor_id;sensor_type;location;lat;lon;timestamp;P1;durP1;ratioP1;P2;durP2;ratioP2
56242;SDS011;42155;53.096;23.226;2023-11-19T00:00:22;18.75;;;9.50;;
56242;SDS011;42155;53.096;23.226;2023-11-19T00:02:23;22.90;;;9.98;;
56242;SDS011;42155;53.096;23.226;2023-11-19T00:04:23;20.05;;;9.95;;
56242;SDS011;42155;53.096;23.226;2023-11-19T00:06:24;23.48;;;10.75;;
56242;SDS011;42155;53.096;23.226;2023-11-19T00:08:24;23.17;;;10.43;;
56242;SDS011;42155;53.096;23.226;2023-11-19T00:10:24;20.90;;;10.45;;
56242;SDS011;42155;53.096;23.226;2023-11-19T00:12:25;20.35;;;9.98;;
56242;SDS011;42155;53.096;23.226;2023-11-19T00:14:25;22.70;;;10.35;;
56242;SDS011;42155;53.096;23.226;2023-11-19T00:16:26;22.58;;;9.52;;
56242;SDS011;42155;53.096;23.226;2023-11-19T00:18:26;21.27;;;9.82;;
56242;SDS011;42155;53.096;23.226;2023-11-19T00:20:27;27.60;;;10.50;;
56242;SDS011;42155;53.096;23.226;2023-11-19T00:22:27;24.17;;;10.70;;
56242;SDS011;42155;53.096;23.226;2023-11-19T00:24:27;23.40;;;11.30;;
56242;SDS011;42155;53.096;23.226;2023-11-19T00:26:28;25.45;;;10.55;;
56242;SDS011;42155;53.096;23.226;2023-11-19T00:28:28;19.90;;;10.00;;
56242;SDS011;42155;53.096;23.226;2023-11-19T00:30:29;17.92;;;9.25;;
56242;SDS011;42155;53.096;23.226;2023-11-19T00:32:29;21.23;;;9.93;;
56242;SDS011;42155;53.096;23.226;2023-11-19T00:34:29;25.48;;;10.35;;
56242;SDS011;42155;53.096;23.226;2023-11-19T00:36:30;24.35;;;10.38;;
56242;SDS011;42155;53.096;23.226;2023-11-19T00:38:30;19.75;;;9.57;;
56242;SDS011;42155;53.096;23.226;2023-11-19T00:40:30;19.80;;;9.50;;
56242;SDS011;42155;53.096;23.226;2023-11-19T00:42:31;19.98;;;9.63;;
56242;SDS011;42155;53.096;23.226;2023-11-19T00:44:31;21.17;;;10.07;;
56242;SDS011;42155;53.096;23.226;2023-11-19T00:46:31;23.88;;;9.90;;
56242;SDS011;42155;53.096;23.226;2023-11-19T00:48:32;21.25;;;10.20;;
56242;SDS011;42155;53.096;23.226;2023-11-19T00:50:32;25.77;;;10.10;;
56242;SDS011;42155;53.096;23.226;2023-11-19T00:52:33;31.63;;;11.05;;
56242;SDS011;42155;53.096;23.226;2023-11-19T00:54:33;29.15;;;11.60;;
56242;SDS011;42155;53.096;23.226;2023-11-19T00:56:34;27.27;;;12.13;;
56242;SDS011;42155;53.096;23.226;2023-11-19T00:58:34;22.85;;;10.45;;
56242;SDS011;42155;53.096;23.226;2023-11-19T01:00:34;20.35;;;10.43;;
56242;SDS011;42155;53.096;23.226;2023-11-19T01:02:34;23.15;;;11.63;;
56242;SDS011;42155;53.096;23.226;2023-11-19T01:04:35;23.73;;;11.00;;
56242;SDS011;42155;53.096;23.226;2023-11-19T01:06:36;23.27;;;10.77;;
56242;SDS011;42155;53.096;23.226;2023-11-19T01:08:36;18.85;;;9.50;;
56242;SDS011;42155;53.096;23.226;2023-11-19T01:10:37;20.08;;;9.43;;
56242;SDS011;42155;53.096;23.226;2023-11-19T01:12:37;23.30;;;10.95;;
56242;SDS011;42155;53.096;23.226;2023-11-19T01:14:37;19.02;;;10.38;;
56242;SDS011;42155;53.096;23.226;2023-11-19T01:16:38;23.02;;;10.05;;
56242;SDS011;42155;53.096;23.226;2023-11-19T01:18:39;20.65;;;10.02;;
56242;SDS011;42155;53.096;23.226;2023-11-19T01:20:39;23.10;;;10.68;;
56242;SDS011;42155;53.096;23.226;2023-11-19T01:22:39;21.17;;;9.73;;
56242;SDS011;42155;53.096;23.226;2023-11-19T01:24:40;20.60;;;10.25;;
56242;SDS011;42155;53.096;23.226;2023-11-19T01:26:40;22.42;;;10.52;;
56242;SDS011;42155;53.096;23.226;2023-11-19T01:28:40;19.40;;;9.65;;
56242;SDS011;42155;53.096;23.226;2023-11-19T01:30:41;19.48;;;9.95;;
56242;SDS011;42155;53.096;23.226;2023-11-19T01:32:41;21.27;;;9.70;;
56242;SDS011;42155;53.096;23.226;2023-11-19T01:34:41;24.15;;;10.02;;
56242;SDS011;42155;53.096;23.226;2023-11-19T01:36:42;20.80;;;10.52;;
56242;SDS011;42155;53.096;23.226;2023-11-19T01:38:42;20.83;;;10.18;;
56242;SDS011;42155;53.096;23.226;2023-11-19T01:40:42;19.83;;;9.90;;
56242;SDS011;42155;53.096;23.226;2023-11-19T01:42:43;20.23;;;9.00;;
56242;SDS011;42155;53.096;23.226;2023-11-19T01:44:53;23.10;;;9.80;;
56242;SDS011;42155;53.096;23.226;2023-11-19T01:46:57;19.00;;;8.93;;
56242;SDS011;42155;53.096;23.226;2023-11-19T01:48:57;16.70;;;9.55;;
56242;SDS011;42155;53.096;23.226;2023-11-19T01:50:59;20.55;;;9.27;;
56242;SDS011;42155;53.096;23.226;2023-11-19T01:53:00;19.15;;;9.57;;
56242;SDS011;42155;53.096;23.226;2023-11-19T01:55:01;20.35;;;10.13;;
56242;SDS011;42155;53.096;23.226;2023-11-19T01:57:02;20.23;;;10.18;;
56242;SDS011;42155;53.096;23.226;2023-11-19T01:59:03;19.65;;;10.60;;
56242;SDS011;42155;53.096;23.226;2023-11-19T02:01:04;19.73;;;10.70;;
56242;SDS011;42155;53.096;23.226;2023-11-19T02:03:08;18.38;;;9.60;;
56242;SDS011;42155;53.096;23.226;2023-11-19T02:05:10;20.85;;;10.30;;
56242;SDS011;42155;53.096;23.226;2023-11-19T02:07:11;25.17;;;9.63;;
56242;SDS011;42155;53.096;23.226;2023-11-19T02:09:12;17.75;;;9.05;;
56242;SDS011;42155;53.096;23.226;2023-11-19T02:11:13;22.52;;;10.40;;
56242;SDS011;42155;53.096;23.226;2023-11-19T02:13:13;19.35;;;9.95;;
56242;SDS011;42155;53.096;23.226;2023-11-19T02:15:13;16.85;;;9.43;;
56242;SDS011;42155;53.096;23.226;2023-11-19T02:17:30;18.23;;;9.48;;
56242;SDS011;42155;53.096;23.226;2023-11-19T02:19:31;21.45;;;9.05;;
56242;SDS011;42155;53.096;23.226;2023-11-19T02:21:31;18.63;;;10.23;;
56242;SDS011;42155;53.096;23.226;2023-11-19T02:23:31;20.02;;;9.57;;
56242;SDS011;42155;53.096;23.226;2023-11-19T02:25:32;20.38;;;9.70;;
56242;SDS011;42155;53.096;23.226;2023-11-19T02:27:47;22.40;;;10.80;;
56242;SDS011;42155;53.096;23.226;2023-11-19T02:30:15;24.67;;;10.25;;
56242;SDS011;42155;53.096;23.226;2023-11-19T02:32:16;21.88;;;10.18;;
56242;SDS011;42155;53.096;23.226;2023-11-19T02:34:16;19.33;;;9.82;;
56242;SDS011;42155;53.096;23.226;2023-11-19T02:36:17;19.85;;;10.30;;
56242;SDS011;42155;53.096;23.226;2023-11-19T02:38:17;21.15;;;10.07;;
56242;SDS011;42155;53.096;23.226;2023-11-19T02:40:17;21.30;;;10.93;;
56242;SDS011;42155;53.096;23.226;2023-11-19T02:42:18;17.65;;;9.95;;
56242;SDS011;42155;53.096;23.226;2023-11-19T02:44:18;18.38;;;9.63;;
56242;SDS011;42155;53.096;23.226;2023-11-19T02:46:18;16.60;;;9.45;;
56242;SDS011;42155;53.096;23.226;2023-11-19T02:48:19;18.65;;;9.80;;
56242;SDS011;42155;53.096;23.226;2023-11-19T02:50:19;18.95;;;9.68;;
56242;SDS011;42155;53.096;23.226;2023-11-19T02:52:20;19.45;;;9.93;;
56242;SDS011;42155;53.096;23.226;2023-11-19T02:54:20;19.85;;;9.90;;
56242;SDS011;42155;53.096;23.226;2023-11-19T02:56:21;26.80;;;10.80;;
56242;SDS011;42155;53.096;23.226;2023-11-19T02:58:21;20.23;;;9.57;;
56242;SDS011;42155;53.096;23.226;2023-11-19T03:00:22;20.35;;;10.70;;
56242;SDS011;42155;53.096;23.226;2023-11-19T03:02:22;18.58;;;9.63;;
56242;SDS011;42155;53.096;23.226;2023-11-19T03:04:23;21.65;;;10.15;;
56242;SDS011;42155;53.096;23.226;2023-11-19T03:06:23;16.20;;;8.70;;
56242;SDS011;42155;53.096;23.226;2023-11-19T03:08:24;18.75;;;9.30;;
56242;SDS011;42155;53.096;23.226;2023-11-19T03:10:24;15.98;;;8.90;;
56242;SDS011;42155;53.096;23.226;2023-11-19T03:12:25;18.90;;;9.18;;
56242;SDS011;42155;53.096;23.226;2023-11-19T03:14:25;18.23;;;10.00;;
56242;SDS011;42155;53.096;23.226;2023-11-19T03:16:25;20.00;;;9.50;;
56242;SDS011;42155;53.096;23.226;2023-11-19T03:18:25;16.05;;;8.48;;
56242;SDS011;42155;53.096;23.226;2023-11-19T03:20:26;22.13;;;9.98;;
56242;SDS011;42155;53.096;23.226;2023-11-19T03:22:26;17.65;;;9.45;;
56242;SDS011;42155;53.096;23.226;2023-11-19T03:24:26;21.95;;;8.95;;
56242;SDS011;42155;53.096;23.226;2023-11-19T03:26:27;21.42;;;9.82;;
56242;SDS011;42155;53.096;23.226;2023-11-19T03:28:28;17.35;;;9.02;;
56242;SDS011;42155;53.096;23.226;2023-11-19T03:30:28;21.50;;;9.10;;
56242;SDS011;42155;53.096;23.226;2023-11-19T03:32:29;20.05;;;9.45;;
56242;SDS011;42155;53.096;23.226;2023-11-19T03:34:29;19.35;;;9.45;;
56242;SDS011;42155;53.096;23.226;2023-11-19T03:36:33;20.55;;;9.32;;
56242;SDS011;42155;53.096;23.226;2023-11-19T03:38:33;18.40;;;9.40;;
56242;SDS011;42155;53.096;23.226;2023-11-19T03:40:33;21.98;;;9.20;;
56242;SDS011;42155;53.096;23.226;2023-11-19T03:42:34;16.27;;;8.43;;
56242;SDS011;42155;53.096;23.226;2023-11-19T03:44:34;15.95;;;8.88;;
56242;SDS011;42155;53.096;23.226;2023-11-19T03:46:35;16.50;;;8.93;;
56242;SDS011;42155;53.096;23.226;2023-11-19T03:48:35;16.60;;;9.40;;
56242;SDS011;42155;53.096;23.226;2023-11-19T03:50:35;17.95;;;8.90;;
56242;SDS011;42155;53.096;23.226;2023-11-19T03:52:36;17.52;;;9.02;;
56242;SDS011;42155;53.096;23.226;2023-11-19T03:54:36;16.70;;;8.70;;
56242;SDS011;42155;53.096;23.226;2023-11-19T03:56:37;17.02;;;8.77;;
56242;SDS011;42155;53.096;23.226;2023-11-19T03:58:38;16.85;;;8.75;;
56242;SDS011;42155;53.096;23.226;2023-11-19T04:00:38;21.67;;;8.48;;
56242;SDS011;42155;53.096;23.226;2023-11-19T04:02:39;16.35;;;7.85;;
56242;SDS011;42155;53.096;23.226;2023-11-19T04:04:40;19.33;;;8.20;;
56242;SDS011;42155;53.096;23.226;2023-11-19T04:06:40;16.13;;;8.43;;
56242;SDS011;42155;53.096;23.226;2023-11-19T04:08:41;19.60;;;8.13;;
56242;SDS011;42155;53.096;23.226;2023-11-19T04:10:41;18.63;;;9.32;;
56242;SDS011;42155;53.096;23.226;2023-11-19T04:12:41;14.90;;;8.13;;
56242;SDS011;42155;53.096;23.226;2023-11-19T04:14:42;17.52;;;8.55;;
56242;SDS011;42155;53.096;23.226;2023-11-19T04:16:42;18.42;;;8.70;;
56242;SDS011;42155;53.096;23.226;2023-11-19T04:18:42;18.98;;;9.10;;
56242;SDS011;42155;53.096;23.226;2023-11-19T04:20:43;20.15;;;8.68;;
56242;SDS011;42155;53.096;23.226;2023-11-19T04:22:43;16.48;;;8.80;;
56242;SDS011;42155;53.096;23.226;2023-11-19T04:24:43;16.38;;;8.98;;
56242;SDS011;42155;53.096;23.226;2023-11-19T04:26:44;18.50;;;9.15;;
56242;SDS011;42155;53.096;23.226;2023-11-19T04:28:45;17.25;;;8.85;;
56242;SDS011;42155;53.096;23.226;2023-11-19T04:30:45;18.77;;;8.85;;
56242;SDS011;42155;53.096;23.226;2023-11-19T04:32:45;15.07;;;8.85;;
56242;SDS011;42155;53.096;23.226;2023-11-19T04:34:46;20.73;;;9.48;;
56242;SDS011;42155;53.096;23.226;2023-11-19T04:36:46;19.38;;;9.35;;
56242;SDS011;42155;53.096;23.226;2023-11-19T04:38:46;19.38;;;9.73;;
56242;SDS011;42155;53.096;23.226;2023-11-19T04:40:47;17.83;;;9.65;;
56242;SDS011;42155;53.096;23.226;2023-11-19T04:42:47;19.85;;;9.82;;
56242;SDS011;42155;53.096;23.226;2023-11-19T04:44:48;19.95;;;10.30;;
56242;SDS011;42155;53.096;23.226;2023-11-19T04:46:48;23.25;;;11.38;;
56242;SDS011;42155;53.096;23.226;2023-11-19T04:48:49;20.08;;;10.10;;
56242;SDS011;42155;53.096;23.226;2023-11-19T04:50:49;17.08;;;9.07;;
56242;SDS011;42155;53.096;23.226;2023-11-19T04:52:50;24.08;;;11.45;;
56242;SDS011;42155;53.096;23.226;2023-11-19T04:54:50;18.70;;;10.00;;
56242;SDS011;42155;53.096;23.226;2023-11-19T04:56:50;15.23;;;8.90;;
56242;SDS011;42155;53.096;23.226;2023-11-19T04:58:51;22.02;;;10.65;;
56242;SDS011;42155;53.096;23.226;2023-11-19T05:00:51;21.25;;;10.85;;
56242;SDS011;42155;53.096;23.226;2023-11-19T05:02:51;22.23;;;10.68;;
56242;SDS011;42155;53.096;23.226;2023-11-19T05:04:52;19.75;;;10.25;;
56242;SDS011;42155;53.096;23.226;2023-11-19T05:06:52;18.77;;;9.98;;
56242;SDS011;42155;53.096;23.226;2023-11-19T05:08:52;20.40;;;10.10;;
56242;SDS011;42155;53.096;23.226;2023-11-19T05:10:56;22.92;;;11.55;;
56242;SDS011;42155;53.096;23.226;2023-11-19T05:12:56;21.02;;;11.48;;
56242;SDS011;42155;53.096;23.226;2023-11-19T05:14:56;24.17;;;10.77;;
56242;SDS011;42155;53.096;23.226;2023-11-19T05:16:57;20.83;;;10.25;;
56242;SDS011;42155;53.096;23.226;2023-11-19T05:18:57;21.42;;;11.35;;
56242;SDS011;42155;53.096;23.226;2023-11-19T05:20:57;20.73;;;10.32;;
56242;SDS011;42155;53.096;23.226;2023-11-19T05:22:58;21.60;;;10.13;;
56242;SDS011;42155;53.096;23.226;2023-11-19T05:24:58;18.60;;;9.43;;
56242;SDS011;42155;53.096;23.226;2023-11-19T05:26:59;18.55;;;9.38;;
56242;SDS011;42155;53.096;23.226;2023-11-19T05:29:00;17.65;;;9.60;;
56242;SDS011;42155;53.096;23.226;2023-11-19T05:31:00;16.55;;;8.70;;
56242;SDS011;42155;53.096;23.226;2023-11-19T05:33:00;19.15;;;9.43;;
56242;SDS011;42155;53.096;23.226;2023-11-19T05:35:01;18.55;;;9.73;;
56242;SDS011;42155;53.096;23.226;2023-11-19T05:37:01;19.10;;;9.73;;
56242;SDS011;42155;53.096;23.226;2023-11-19T05:39:02;19.80;;;9.38;;
56242;SDS011;42155;53.096;23.226;2023-11-19T05:41:03;20.05;;;9.40;;
56242;SDS011;42155;53.096;23.226;2023-11-19T05:43:03;17.13;;;8.82;;
56242;SDS011;42155;53.096;23.226;2023-11-19T05:45:03;20.50;;;10.00;;
56242;SDS011;42155;53.096;23.226;2023-11-19T05:47:04;21.85;;;10.15;;
56242;SDS011;42155;53.096;23.226;2023-11-19T05:49:04;19.50;;;9.73;;
56242;SDS011;42155;53.096;23.226;2023-11-19T05:51:05;26.17;;;9.82;;
56242;SDS011;42155;53.096;23.226;2023-11-19T05:53:05;19.15;;;10.85;;
56242;SDS011;42155;53.096;23.226;2023-11-19T05:55:06;20.00;;;10.30;;
56242;SDS011;42155;53.096;23.226;2023-11-19T05:57:06;20.35;;;10.70;;
56242;SDS011;42155;53.096;23.226;2023-11-19T05:59:07;22.77;;;11.98;;
56242;SDS011;42155;53.096;23.226;2023-11-19T06:01:07;26.08;;;12.65;;
56242;SDS011;42155;53.096;23.226;2023-11-19T06:03:08;25.23;;;12.15;;
56242;SDS011;42155;53.096;23.226;2023-11-19T06:05:08;23.92;;;11.90;;
56242;SDS011;42155;53.096;23.226;2023-11-19T06:07:08;24.65;;;11.70;;
56242;SDS011;42155;53.096;23.226;2023-11-19T06:09:09;23.10;;;10.95;;
56242;SDS011;42155;53.096;23.226;2023-11-19T06:11:09;27.08;;;10.93;;
56242;SDS011;42155;53.096;23.226;2023-11-19T06:13:10;24.55;;;11.77;;
56242;SDS011;42155;53.096;23.226;2023-11-19T06:15:10;25.35;;;11.48;;
56242;SDS011;42155;53.096;23.226;2023-11-19T06:17:11;24.15;;;11.23;;
56242;SDS011;42155;53.096;23.226;2023-11-19T06:19:11;27.35;;;12.38;;
56242;SDS011;42155;53.096;23.226;2023-11-19T06:21:12;40.38;;;18.00;;
56242;SDS011;42155;53.096;23.226;2023-11-19T06:23:12;29.65;;;13.57;;
56242;SDS011;42155;53.096;23.226;2023-11-19T06:25:13;31.20;;;12.70;;
56242;SDS011;42155;53.096;23.226;2023-11-19T06:27:13;25.88;;;12.43;;
56242;SDS011;42155;53.096;23.226;2023-11-19T06:29:13;27.77;;;11.32;;
56242;SDS011;42155;53.096;23.226;2023-11-19T06:31:14;25.92;;;11.30;;
56242;SDS011;42155;53.096;23.226;2023-11-19T06:33:14;24.25;;;11.18;;
56242;SDS011;42155;53.096;23.226;2023-11-19T06:35:14;27.35;;;11.10;;
56242;SDS011;42155;53.096;23.226;2023-11-19T06:37:15;33.70;;;11.60;;
56242;SDS011;42155;53.096;23.226;2023-11-19T06:39:15;33.35;;;12.60;;
56242;SDS011;42155;53.096;23.226;2023-11-19T06:41:15;33.13;;;12.18;;
56242;SDS011;42155;53.096;23.226;2023-11-19T06:43:16;30.35;;;12.40;;
56242;SDS011;42155;53.096;23.226;2023-11-19T06:45:16;26.55;;;11.15;;
56242;SDS011;42155;53.096;23.226;2023-11-19T06:47:17;28.25;;;10.90;;
56242;SDS011;42155;53.096;23.226;2023-11-19T06:49:17;28.17;;;11.57;;
56242;SDS011;42155;53.096;23.226;2023-11-19T06:51:17;31.30;;;12.80;;
56242;SDS011;42155;53.096;23.226;2023-11-19T06:53:18;23.88;;;11.43;;
56242;SDS011;42155;53.096;23.226;2023-11-19T06:55:18;27.92;;;11.13;;
56242;SDS011;42155;53.096;23.226;2023-11-19T06:57:18;25.67;;;11.65;;
56242;SDS011;42155;53.096;23.226;2023-11-19T06:59:19;31.80;;;12.65;;
56242;SDS011;42155;53.096;23.226;2023-11-19T07:01:19;25.67;;;12.02;;
56242;SDS011;42155;53.096;23.226;2023-11-19T07:03:20;29.35;;;11.93;;
56242;SDS011;42155;53.096;23.226;2023-11-19T07:05:20;29.17;;;11.35;;
56242;SDS011;42155;53.096;23.226;2023-11-19T07:07:20;25.13;;;11.38;;
56242;SDS011;42155;53.096;23.226;2023-11-19T07:09:21;25.50;;;11.57;;
56242;SDS011;42155;53.096;23.226;2023-11-19T07:11:21;28.20;;;11.98;;
56242;SDS011;42155;53.096;23.226;2023-11-19T07:13:23;27.83;;;12.10;;
56242;SDS011;42155;53.096;23.226;2023-11-19T07:15:23;27.58;;;11.48;;
56242;SDS011;42155;53.096;23.226;2023-11-19T07:17:23;24.42;;;10.82;;
56242;SDS011;42155;53.096;23.226;2023-11-19T07:19:24;26.48;;;10.73;;
56242;SDS011;42155;53.096;23.226;2023-11-19T07:21:24;21.52;;;10.02;;
56242;SDS011;42155;53.096;23.226;2023-11-19T07:23:25;23.38;;;10.35;;
56242;SDS011;42155;53.096;23.226;2023-11-19T07:25:25;24.27;;;10.27;;
56242;SDS011;42155;53.096;23.226;2023-11-19T07:27:25;22.73;;;10.43;;
56242;SDS011;42155;53.096;23.226;2023-11-19T07:29:25;27.60;;;11.65;;
56242;SDS011;42155;53.096;23.226;2023-11-19T07:31:26;22.80;;;10.50;;
56242;SDS011;42155;53.096;23.226;2023-11-19T07:33:26;26.30;;;10.93;;
56242;SDS011;42155;53.096;23.226;2023-11-19T07:35:26;30.05;;;11.60;;
56242;SDS011;42155;53.096;23.226;2023-11-19T07:37:27;25.00;;;11.38;;
56242;SDS011;42155;53.096;23.226;2023-11-19T07:39:27;24.42;;;11.10;;
56242;SDS011;42155;53.096;23.226;2023-11-19T07:41:28;26.55;;;11.38;;
56242;SDS011;42155;53.096;23.226;2023-11-19T07:43:28;21.33;;;10.07;;
56242;SDS011;42155;53.096;23.226;2023-11-19T07:45:29;24.83;;;10.57;;
56242;SDS011;42155;53.096;23.226;2023-11-19T07:47:29;25.33;;;11.32;;
56242;SDS011;42155;53.096;23.226;2023-11-19T07:49:29;22.27;;;9.77;;
56242;SDS011;42155;53.096;23.226;2023-11-19T07:51:30;28.42;;;10.88;;
56242;SDS011;42155;53.096;23.226;2023-11-19T07:53:30;21.08;;;8.68;;
56242;SDS011;42155;53.096;23.226;2023-11-19T07:55:30;23.75;;;11.55;;
56242;SDS011;42155;53.096;23.226;2023-11-19T07:57:31;21.90;;;9.50;;
56242;SDS011;42155;53.096;23.226;2023-11-19T07:59:31;26.00;;;10.40;;
56242;SDS011;42155;53.096;23.226;2023-11-19T08:01:31;23.40;;;10.25;;
56242;SDS011;42155;53.096;23.226;2023-11-19T08:03:32;24.63;;;10.88;;
56242;SDS011;42155;53.096;23.226;2023-11-19T08:05:33;23.63;;;10.95;;
56242;SDS011;42155;53.096;23.226;2023-11-19T08:07:33;29.00;;;12.02;;
56242;SDS011;42155;53.096;23.226;2023-11-19T08:09:33;28.13;;;12.02;;
56242;SDS011;42155;53.096;23.226;2023-11-19T08:11:34;29.60;;;11.25;;
56242;SDS011;42155;53.096;23.226;2023-11-19T08:13:34;24.65;;;10.40;;
56242;SDS011;42155;53.096;23.226;2023-11-19T08:15:34;21.70;;;10.40;;
56242;SDS011;42155;53.096;23.226;2023-11-19T08:17:35;29.23;;;11.57;;
56242;SDS011;42155;53.096;23.226;2023-11-19T08:19:35;28.65;;;13.43;;
56242;SDS011;42155;53.096;23.226;2023-11-19T08:21:35;29.73;;;11.77;;
56242;SDS011;42155;53.096;23.226;2023-11-19T08:23:36;32.33;;;13.10;;
56242;SDS011;42155;53.096;23.226;2023-11-19T08:25:36;29.60;;;11.95;;
56242;SDS011;42155;53.096;23.226;2023-11-19T08:27:37;30.63;;;13.15;;
56242;SDS011;42155;53.096;23.226;2023-11-19T08:29:37;28.52;;;12.38;;
56242;SDS011;42155;53.096;23.226;2023-11-19T08:31:37;30.20;;;12.55;;
56242;SDS011;42155;53.096;23.226;2023-11-19T08:33:37;27.42;;;12.45;;
56242;SDS011;42155;53.096;23.226;2023-11-19T08:35:38;27.63;;;12.45;;
56242;SDS011;42155;53.096;23.226;2023-11-19T08:37:38;24.60;;;12.15;;
56242;SDS011;42155;53.096;23.226;2023-11-19T08:39:38;27.33;;;11.60;;
56242;SDS011;42155;53.096;23.226;2023-11-19T08:41:39;22.15;;;10.43;;
56242;SDS011;42155;53.096;23.226;2023-11-19T08:43:39;29.58;;;11.68;;
56242;SDS011;42155;53.096;23.226;2023-11-19T08:45:39;27.67;;;10.90;;
56242;SDS011;42155;53.096;23.226;2023-11-19T08:47:40;25.90;;;11.18;;
56242;SDS011;42155;53.096;23.226;2023-11-19T08:49:40;25.10;;;11.38;;
56242;SDS011;42155;53.096;23.226;2023-11-19T08:51:40;25.17;;;10.88;;
56242;SDS011;42155;53.096;23.226;2023-11-19T08:53:41;25.33;;;11.18;;
56242;SDS011;42155;53.096;23.226;2023-11-19T08:55:41;22.23;;;10.63;;
56242;SDS011;42155;53.096;23.226;2023-11-19T08:57:41;28.27;;;10.98;;
56242;SDS011;42155;53.096;23.226;2023-11-19T08:59:42;24.85;;;12.07;;
56242;SDS011;42155;53.096;23.226;2023-11-19T09:01:42;22.60;;;11.48;;
56242;SDS011;42155;53.096;23.226;2023-11-19T09:03:43;25.27;;;11.77;;
56242;SDS011;42155;53.096;23.226;2023-11-19T09:05:43;27.08;;;12.10;;
56242;SDS011;42155;53.096;23.226;2023-11-19T09:07:43;23.10;;;10.57;;
56242;SDS011;42155;53.096;23.226;2023-11-19T09:09:43;22.58;;;10.05;;
56242;SDS011;42155;53.096;23.226;2023-11-19T09:11:44;23.45;;;11.55;;
56242;SDS011;42155;53.096;23.226;2023-11-19T09:13:44;21.42;;;10.88;;
56242;SDS011;42155;53.096;23.226;2023-11-19T09:15:44;28.23;;;12.82;;
56242;SDS011;42155;53.096;23.226;2023-11-19T09:17:45;24.05;;;11.45;;
56242;SDS011;42155;53.096;23.226;2023-11-19T09:19:45;23.77;;;11.20;;
56242;SDS011;42155;53.096;23.226;2023-11-19T09:21:45;22.75;;;10.98;;
56242;SDS011;42155;53.096;23.226;2023-11-19T09:23:46;22.38;;;11.27;;
56242;SDS011;42155;53.096;23.226;2023-11-19T09:25:46;26.35;;;12.38;;
56242;SDS011;42155;53.096;23.226;2023-11-19T09:27:46;25.02;;;11.85;;
56242;SDS011;42155;53.096;23.226;2023-11-19T09:29:47;25.48;;;11.85;;
56242;SDS011;42155;53.096;23.226;2023-11-19T09:31:47;25.17;;;11.95;;
56242;SDS011;42155;53.096;23.226;2023-11-19T09:33:47;22.75;;;10.23;;
56242;SDS011;42155;53.096;23.226;2023-11-19T09:35:48;23.70;;;11.35;;
56242;SDS011;42155;53.096;23.226;2023-11-19T09:37:48;22.85;;;10.55;;
56242;SDS011;42155;53.096;23.226;2023-11-19T09:39:48;23.75;;;11.02;;
56242;SDS011;42155;53.096;23.226;2023-11-19T09:41:49;24.20;;;10.63;;
56242;SDS011;42155;53.096;23.226;2023-11-19T09:43:49;23.80;;;11.07;;
56242;SDS011;42155;53.096;23.226;2023-11-19T09:45:50;23.92;;;11.32;;
56242;SDS011;42155;53.096;23.226;2023-11-19T09:47:51;24.58;;;11.50;;
56242;SDS011;42155;53.096;23.226;2023-11-19T09:49:52;25.65;;;11.32;;
56242;SDS011;42155;53.096;23.226;2023-11-19T09:51:53;21.58;;;10.63;;
56242;SDS011;42155;53.096;23.226;2023-11-19T09:53:53;21.50;;;10.63;;
56242;SDS011;42155;53.096;23.226;2023-11-19T09:55:54;24.60;;;10.88;;
56242;SDS011;42155;53.096;23.226;2023-11-19T09:57:55;26.45;;;12.10;;
56242;SDS011;42155;53.096;23.226;2023-11-19T09:59:57;22.98;;;10.90;;
56242;SDS011;42155;53.096;23.226;2023-11-19T10:01:57;24.10;;;10.93;;
56242;SDS011;42155;53.096;23.226;2023-11-19T10:03:59;24.15;;;11.73;;
56242;SDS011;42155;53.096;23.226;2023-11-19T10:06:01;24.17;;;11.95;;
56242;SDS011;42155;53.096;23.226;2023-11-19T10:08:02;25.15;;;10.57;;
56242;SDS011;42155;53.096;23.226;2023-11-19T10:10:03;27.80;;;11.95;;
56242;SDS011;42155;53.096;23.226;2023-11-19T10:12:04;25.58;;;11.70;;
56242;SDS011;42155;53.096;23.226;2023-11-19T10:14:04;28.08;;;12.05;;
56242;SDS011;42155;53.096;23.226;2023-11-19T10:16:08;25.02;;;11.85;;
56242;SDS011;42155;53.096;23.226;2023-11-19T10:18:09;22.77;;;10.73;;
56242;SDS011;42155;53.096;23.226;2023-11-19T10:20:09;23.75;;;11.07;;
56242;SDS011;42155;53.096;23.226;2023-11-19T10:22:10;24.75;;;10.80;;
56242;SDS011;42155;53.096;23.226;2023-11-19T10:24:11;25.00;;;11.85;;
56242;SDS011;42155;53.096;23.226;2023-11-19T10:26:11;27.80;;;11.27;;
56242;SDS011;42155;53.096;23.226;2023-11-19T10:28:11;24.83;;;10.90;;
56242;SDS011;42155;53.096;23.226;2023-11-19T10:30:21;26.98;;;11.48;;
56242;SDS011;42155;53.096;23.226;2023-11-19T10:32:23;29.33;;;11.65;;
56242;SDS011;42155;53.096;23.226;2023-11-19T10:34:24;24.88;;;10.63;;
56242;SDS011;42155;53.096;23.226;2023-11-19T10:36:38;26.17;;;11.68;;
56242;SDS011;42155;53.096;23.226;2023-11-19T10:38:39;25.88;;;10.93;;
56242;SDS011;42155;53.096;23.226;2023-11-19T10:40:40;22.80;;;10.73;;
56242;SDS011;42155;53.096;23.226;2023-11-19T10:42:41;25.17;;;11.10;;
56242;SDS011;42155;53.096;23.226;2023-11-19T10:44:41;24.30;;;11.65;;
56242;SDS011;42155;53.096;23.226;2023-11-19T10:46:42;33.40;;;12.23;;
56242;SDS011;42155;53.096;23.226;2023-11-19T10:48:42;35.38;;;12.95;;
56242;SDS011;42155;53.096;23.226;2023-11-19T10:50:44;28.95;;;11.75;;
56242;SDS011;42155;53.096;23.226;2023-11-19T10:52:45;30.65;;;12.23;;
56242;SDS011;42155;53.096;23.226;2023-11-19T10:54:49;32.30;;;12.80;;
56242;SDS011;42155;53.096;23.226;2023-11-19T10:56:54;30.75;;;12.38;;
56242;SDS011;42155;53.096;23.226;2023-11-19T10:58:56;27.55;;;11.77;;
56242;SDS011;42155;53.096;23.226;2023-11-19T11:01:01;30.67;;;12.52;;
56242;SDS011;42155;53.096;23.226;2023-11-19T11:03:04;29.45;;;12.30;;
56242;SDS011;42155;53.096;23.226;2023-11-19T11:05:11;32.90;;;12.38;;
56242;SDS011;42155;53.096;23.226;2023-11-19T11:07:13;32.05;;;14.00;;
56242;SDS011;42155;53.096;23.226;2023-11-19T11:09:15;34.22;;;14.00;;
56242;SDS011;42155;53.096;23.226;2023-11-19T11:11:16;31.65;;;13.18;;
56242;SDS011;42155;53.096;23.226;2023-11-19T11:13:16;32.03;;;12.77;;
56242;SDS011;42155;53.096;23.226;2023-11-19T11:15:18;29.30;;;12.93;;
56242;SDS011;42155;53.096;23.226;2023-11-19T11:17:19;30.25;;;12.88;;
56242;SDS011;42155;53.096;23.226;2023-11-19T11:19:26;26.50;;;11.77;;
56242;SDS011;42155;53.096;23.226;2023-11-19T11:21:26;31.77;;;13.07;;
56242;SDS011;42155;53.096;23.226;2023-11-19T11:36:59;26.30;;;11.57;;
56242;SDS011;42155;53.096;23.226;2023-11-19T11:39:10;26.73;;;12.25;;
56242;SDS011;42155;53.096;23.226;2023-11-19T11:41:23;34.63;;;12.60;;
56242;SDS011;42155;53.096;23.226;2023-11-19T11:43:43;27.67;;;11.70;;
56242;SDS011;42155;53.096;23.226;2023-11-19T11:45:44;28.90;;;11.80;;
56242;SDS011;42155;53.096;23.226;2023-11-19T11:48:03;25.10;;;11.50;;
56242;SDS011;42155;53.096;23.226;2023-11-19T11:50:09;33.90;;;13.80;;
56242;SDS011;42155;53.096;23.226;2023-11-19T11:52:18;32.03;;;14.25;;
56242;SDS011;42155;53.096;23.226;2023-11-19T11:56:19;27.38;;;11.23;;